Time;durP1;ratioP1;P1;durP2;ratioP2;P2;SDS_P1;SDS_P2;PMS_P1;PMS_P2;Temp;Humidity;BMP_temperature;BMP_pressure;BME280_temperature;BME280_humidity;BME280_pressure;Samples;Min_cycle;Max_cycle;Signal;HPM_P1;HPM_P2
2023/06/07 00:01:42;;;;;;;;;15.50;13.75;;;;;21.35;52.65;100936.00;5078187;28;46247;-81
2023/06/07 00:04:11;;;;;;;;;17.75;16.75;;;;;21.32;52.66;100941.69;5076355;28;45628;-81
2023/06/07 00:06:39;;;;;;;;;17.00;16.00;;;;;21.27;52.81;100934.16;5075147;28;45726;-81
2023/06/07 00:09:06;;;;;;;;;15.75;14.00;;;;;21.23;53.13;100942.69;5074469;28;46467;-81
2023/06/07 00:11:31;;;;;;;;;14.50;13.75;;;;;21.17;52.85;100938.84;5074759;28;45828;-81
2023/06/07 00:17:18;;;;;;;;;17.75;16.25;;;;;21.13;53.34;100953.50;5074507;28;45550;-81
2023/06/07 00:19:44;;;;;;;;;16.25;14.25;;;;;21.08;53.26;100942.50;5074646;28;45643;-81
2023/06/07 00:22:12;;;;;;;;;20.75;15.75;;;;;21.06;52.79;100946.34;5074259;28;46540;-81
2023/06/07 00:24:38;;;;;;;;;16.25;14.75;;;;;21.01;53.67;100946.00;5074869;28;45671;-81
2023/06/07 00:27:04;;;;;;;;;20.00;16.75;;;;;20.97;53.28;100956.19;5056024;28;46000;-81
2023/06/07 00:29:30;;;;;;;;;18.25;15.50;;;;;20.92;53.36;100940.69;5074669;28;46352;-80
2023/06/07 00:31:55;;;;;;;;;16.50;15.75;;;;;20.90;53.44;100941.84;5074515;28;45586;-82
2023/06/07 00:34:21;;;;;;;;;18.00;16.25;;;;;20.90;53.34;100947.19;5074917;28;45415;-81
2023/06/07 00:36:47;;;;;;;;;16.50;15.00;;;;;20.85;53.69;100945.03;5073062;28;46062;-83
2023/06/07 00:39:13;;;;;;;;;11.00;8.25;;;;;20.85;53.59;100942.38;5074361;28;45699;-80
2023/06/07 00:41:38;;;;;;;;;16.00;13.25;;;;;20.87;53.25;100948.38;5074567;28;46011;-83
2023/06/07 00:47:26;;;;;;;;;18.25;15.25;;;;;20.76;53.40;100943.38;5074293;28;45472;-83
2023/06/07 00:49:53;;;;;;;;;21.25;18.25;;;;;20.74;53.82;100939.19;5074372;28;45798;-82
2023/06/07 00:52:19;;;;;;;;;15.50;12.25;;;;;20.73;53.64;100949.00;5074606;28;45605;-81
2023/06/07 00:54:44;;;;;;;;;17.25;16.25;;;;;20.65;53.53;100940.22;5074850;28;45479;-81
2023/06/07 00:57:10;;;;;;;;;16.50;15.00;;;;;20.59;53.11;100936.38;5056081;28;45507;-81
2023/06/07 00:59:37;;;;;;;;;19.75;18.00;;;;;20.52;53.98;100930.88;5074821;28;46576;-84
2023/06/07 01:02:03;;;;;;;;;17.25;16.00;;;;;20.48;54.45;100931.38;5074807;28;45728;-80
2023/06/07 01:04:29;;;;;;;;;16.75;16.00;;;;;20.44;54.02;100930.88;5075135;28;45672;-83
2023/06/07 01:06:55;;;;;;;;;20.00;17.25;;;;;20.42;54.08;100929.38;5074843;28;45673;-80
2023/06/07 01:09:22;;;;;;;;;16.25;14.25;;;;;20.41;53.98;100933.03;5056259;28;46460;-83
2023/06/07 01:11:52;;;;;;;;;18.25;16.25;;;;;20.35;54.21;100928.38;5074797;28;45995;-81
2023/06/07 01:17:42;;;;;;;;;19.25;16.00;;;;;20.30;53.68;100922.66;5074697;28;45578;-83
2023/06/07 01:20:15;;;;;;;;;18.50;14.50;;;;;20.31;54.17;100927.00;5075170;28;45846;-81
2023/06/07 01:22:44;;;;;;;;;21.75;17.00;;;;;20.29;54.57;100926.34;5077994;28;45605;-82
2023/06/07 01:25:10;;;;;;;;;20.75;16.25;;;;;20.26;53.78;100919.50;5078023;28;45640;-82
2023/06/07 01:27:40;;;;;;;;;16.25;14.75;;;;;20.20;54.27;100924.63;5078503;28;45556;-82
2023/06/07 01:30:08;;;;;;;;;22.00;18.75;;;;;20.17;54.98;100922.31;5078816;28;45622;-82
2023/06/07 01:32:35;;;;;;;;;18.00;14.75;;;;;20.11;54.93;100921.97;5077933;28;45897;-81
2023/06/07 01:35:03;;;;;;;;;18.00;15.75;;;;;20.04;55.45;100917.47;5078138;28;45545;-81
2023/06/07 01:37:30;;;;;;;;;21.00;15.50;;;;;19.94;55.18;100924.75;5059478;28;45516;-81
2023/06/07 01:39:57;;;;;;;;;22.25;18.25;;;;;19.92;55.25;100914.25;5077615;28;48175;-81
2023/06/07 01:42:23;;;;;;;;;16.00;14.00;;;;;19.86;54.88;100920.25;5078540;28;46058;-81
2023/06/07 01:48:10;;;;;;;;;19.00;15.00;;;;;19.79;55.26;100916.56;5083499;28;45613;-82
2023/06/07 01:50:35;;;;;;;;;17.75;14.75;;;;;19.75;55.51;100915.22;5086642;28;45598;-84
2023/06/07 01:53:00;;;;;;;;;24.75;18.25;;;;;19.72;55.44;100912.88;5085045;28;46409;-82
2023/06/07 01:55:27;;;;;;;;;15.75;13.75;;;;;19.73;55.48;100922.53;5080481;28;45652;-82
2023/06/07 01:58:00;;;;;;;;;15.00;14.25;;;;;19.70;55.35;100914.88;5080454;28;45811;-83
2023/06/07 02:00:28;;;;;;;;;14.75;14.25;;;;;19.69;55.51;100916.69;5082896;28;46291;-83
2023/06/07 02:02:57;;;;;;;;;18.75;16.00;;;;;19.64;55.32;100905.72;5085581;28;45723;-82
2023/06/07 02:05:34;;;;;;;;;18.50;16.50;;;;;19.63;55.69;100900.53;5085628;28;45863;-83
2023/06/07 02:08:02;;;;;;;;;22.00;17.00;;;;;19.55;55.88;100905.81;5085058;28;45550;-83
2023/06/07 02:10:30;;;;;;;;;23.75;19.50;;;;;19.56;55.89;100904.81;5085283;28;45825;-83
2023/06/07 02:12:57;;;;;;;;;18.25;17.00;;;;;19.53;55.50;100903.34;5083420;28;46229;-84
2023/06/07 02:15:23;;;;;;;;;21.75;18.25;;;;;19.47;55.31;100908.44;5082834;28;45698;-84
2023/06/07 02:17:51;;;;;;;;;21.25;18.00;;;;;19.44;55.57;100900.75;5079595;28;45488;-83
2023/06/07 02:20:17;;;;;;;;;22.50;19.50;;;;;19.42;56.02;100903.59;5077040;28;46317;-84
2023/06/07 02:22:43;;;;;;;;;20.75;18.00;;;;;19.40;55.44;100904.72;5080108;28;45692;-84
2023/06/07 02:25:08;;;;;;;;;22.00;18.00;;;;;19.34;55.62;100900.88;5077470;28;45642;-83
2023/06/07 02:27:34;;;;;;;;;19.00;17.00;;;;;19.27;55.87;100895.34;5076718;28;45683;-83
2023/06/07 02:33:24;;;;;;;;;18.00;14.50;;;;;19.20;56.42;100891.69;5076512;28;45610;-84
2023/06/07 02:35:49;;;;;;;;;19.00;16.25;;;;;19.15;56.39;100888.66;5076669;28;45808;-85
2023/06/07 02:38:15;;;;;;;;;19.25;17.25;;;;;19.13;56.42;100897.78;5076676;28;45855;-83
2023/06/07 02:40:40;;;;;;;;;23.00;19.00;;;;;19.08;56.33;100898.25;5076396;28;46383;-84
2023/06/07 02:43:06;;;;;;;;;23.75;19.75;;;;;19.06;56.67;100899.38;5076412;28;45590;-85
2023/06/07 02:45:31;;;;;;;;;20.75;18.00;;;;;19.00;56.47;100892.06;5076471;28;45473;-84
2023/06/07 02:47:57;;;;;;;;;25.00;20.50;;;;;18.96;56.83;100902.13;5076756;28;45977;-83
2023/06/07 02:50:22;;;;;;;;;18.50;17.00;;;;;18.96;56.42;100902.13;5076416;28;45669;-84
2023/06/07 02:52:47;;;;;;;;;22.00;20.00;;;;;18.94;57.01;100898.84;5076032;28;46361;-83
2023/06/07 02:55:13;;;;;;;;;18.25;16.25;;;;;18.92;57.01;100898.13;5075950;28;45616;-84
2023/06/07 02:57:40;;;;;;;;;18.75;17.25;;;;;18.86;56.54;100891.63;5075973;28;45503;-84
2023/06/07 03:03:27;;;;;;;;;25.00;19.50;;;;;18.83;57.31;100897.25;5075705;28;45648;-83
2023/06/07 03:05:52;;;;;;;;;21.50;19.50;;;;;18.83;56.76;100901.75;5075767;28;45565;-84
2023/06/07 03:08:18;;;;;;;;;16.00;13.00;;;;;18.81;57.54;100891.25;5057808;28;45866;-84
2023/06/07 03:10:44;;;;;;;;;21.50;17.00;;;;;18.76;57.18;100898.03;5075864;28;45554;-84
2023/06/07 03:13:09;;;;;;;;;23.25;17.00;;;;;18.69;56.90;100892.50;5057423;28;46495;-84
2023/06/07 03:15:35;;;;;;;;;19.75;17.25;;;;;18.70;57.55;100896.81;5057295;28;45626;-84
2023/06/07 03:18:03;;;;;;;;;18.00;15.25;;;;;18.67;57.29;100898.97;5076299;28;45678;-84
2023/06/07 03:20:29;;;;;;;;;21.75;21.00;;;;;18.66;57.30;100898.13;5075524;28;46480;-84
2023/06/07 03:22:55;;;;;;;;;18.75;16.75;;;;;18.64;57.36;100900.09;5075716;28;46324;-84
2023/06/07 03:25:21;;;;;;;;;23.00;19.50;;;;;18.60;57.81;100889.94;5075438;28;45538;-84
2023/06/07 03:27:46;;;;;;;;;22.00;16.50;;;;;18.58;57.57;100891.91;5075655;28;45570;-84
2023/06/07 03:33:33;;;;;;;;;22.75;15.75;;;;;18.48;57.88;100886.66;5075201;28;45624;-85
2023/06/07 03:35:59;;;;;;;;;26.75;21.75;;;;;18.46;58.42;100881.50;5075519;28;46267;-81
2023/06/07 03:38:24;;;;;;;;;21.75;17.50;;;;;18.40;58.16;100887.44;5075702;28;45618;-84
2023/06/07 03:40:50;;;;;;;;;22.00;18.75;;;;;18.37;57.83;100889.53;5075507;28;45605;-83
2023/06/07 03:43:15;;;;;;;;;23.50;20.50;;;;;18.36;58.17;100886.03;5074802;28;45729;-82
2023/06/07 03:49:02;;;;;;;;;22.50;18.00;;;;;18.27;58.24;100886.13;5075430;28;45687;-82
2023/06/07 03:51:27;;;;;;;;;24.25;22.00;;;;;18.27;58.30;100896.75;5075276;28;46389;-82
2023/06/07 03:53:52;;;;;;;;;23.00;18.50;;;;;18.24;58.50;100892.59;5075246;28;45972;-83
2023/06/07 03:56:18;;;;;;;;;31.25;21.25;;;;;18.21;58.62;100887.56;5074981;28;45711;-82
2023/06/07 03:58:45;;;;;;;;;21.25;20.25;;;;;18.19;58.56;100891.38;5075237;28;45705;-81
2023/06/07 04:01:10;;;;;;;;;18.25;15.50;;;;;18.19;58.73;100891.38;5075053;28;46616;-82
2023/06/07 04:03:36;;;;;;;;;21.00;17.75;;;;;18.16;58.60;100887.19;5075023;28;45637;-83
2023/06/07 04:06:01;;;;;;;;;22.00;19.25;;;;;18.18;58.45;100890.53;5074859;28;45743;-82
2023/06/07 04:08:26;;;;;;;;;22.00;19.75;;;;;18.15;58.38;100892.63;5075163;28;45503;-82
2023/06/07 04:10:52;;;;;;;;;21.00;18.75;;;;;18.13;58.43;100895.47;5075194;28;46552;-81
2023/06/07 04:13:18;;;;;;;;;21.50;20.50;;;;;18.16;58.93;100895.16;5075167;28;46261;-82
2023/06/07 04:19:05;;;;;;;;;23.75;21.00;;;;;18.07;58.69;100904.00;5074811;28;45835;-82
2023/06/07 04:21:30;;;;;;;;;27.25;21.75;;;;;18.10;58.98;100906.34;5056114;28;47609;-83
2023/06/07 04:23:56;;;;;;;;;22.25;19.75;;;;;18.10;58.61;100908.16;5074847;28;45641;-82
2023/06/07 04:26:22;;;;;;;;;22.25;19.75;;;;;18.08;58.94;100911.00;5074463;28;45832;-83
2023/06/07 04:28:49;;;;;;;;;25.25;21.75;;;;;18.06;58.85;100905.00;5074723;28;45532;-83
2023/06/07 04:31:15;;;;;;;;;23.50;22.50;;;;;18.06;59.19;100906.81;5056924;28;47627;-83
2023/06/07 04:33:45;;;;;;;;;27.00;21.50;;;;;18.05;58.76;100924.53;5057329;28;48101;-83
2023/06/07 04:36:11;;;;;;;;;22.75;22.00;;;;;18.00;59.13;100914.38;5079597;28;45519;-82
2023/06/07 04:38:39;;;;;;;;;24.25;23.00;;;;;18.02;58.94;100916.88;5084973;28;45795;-82
2023/06/07 04:41:06;;;;;;;;;24.75;20.50;;;;;17.96;59.25;100922.78;5078735;28;45543;-83
2023/06/07 04:43:35;;;;;;;;;24.75;23.75;;;;;17.96;59.32;100910.38;5076897;28;45824;-83
2023/06/07 04:49:23;;;;;;;;;23.50;20.25;;;;;17.93;59.28;100917.75;5081810;28;45492;-83
2023/06/07 04:51:50;;;;;;;;;22.00;19.25;;;;;17.95;58.92;100924.59;5080176;28;47271;-83
2023/06/07 04:54:16;;;;;;;;;23.25;20.75;;;;;17.91;58.86;100915.28;5080801;28;45997;-83
2023/06/07 04:56:42;;;;;;;;;24.50;21.50;;;;;17.91;59.71;100919.75;5081192;28;45522;-85
2023/06/07 04:59:08;;;;;;;;;28.75;24.25;;;;;17.91;59.40;100925.88;5063387;28;45485;-84
2023/06/07 05:01:34;;;;;;;;;27.00;25.50;;;;;17.84;59.46;100919.50;5080024;28;45553;-83
2023/06/07 05:04:01;;;;;;;;;24.75;23.00;;;;;17.83;59.10;100923.13;5076750;28;46399;-84
2023/06/07 05:06:28;;;;;;;;;25.50;23.00;;;;;17.78;59.72;100913.94;5074298;28;45732;-83
2023/06/07 05:08:53;;;;;;;;;24.50;21.25;;;;;17.74;59.58;100915.22;5074333;28;45709;-83
2023/06/07 05:11:19;;;;;;;;;24.25;23.50;;;;;17.76;59.68;100922.03;5055946;28;46455;-83
2023/06/07 05:13:46;;;;;;;;;24.50;22.25;;;;;17.77;59.47;100921.06;5059621;28;46571;-84
2023/06/07 05:19:33;;;;;;;;;28.50;24.50;;;;;17.78;59.79;100928.03;5075581;28;45687;-82
2023/06/07 05:21:59;;;;;;;;;35.00;24.75;;;;;17.72;59.96;100920.69;5076902;28;45617;-82
2023/06/07 05:24:24;;;;;;;;;29.25;24.75;;;;;17.72;59.72;100912.72;5073469;28;45734;-80
2023/06/07 05:26:50;;;;;;;;;27.00;23.75;;;;;17.68;60.09;100916.66;5055295;28;45671;-82
2023/06/07 05:29:15;;;;;;;;;34.50;27.00;;;;;17.66;60.43;100918.59;5073623;28;45724;-80
2023/06/07 05:35:03;;;;;;;;;26.50;23.75;;;;;17.61;59.97;100923.50;5072935;28;46125;-77
2023/06/07 05:37:30;;;;;;;;;27.75;22.50;;;;;17.57;60.63;100915.00;5073154;28;45775;-78
2023/06/07 05:39:56;;;;;;;;;28.00;26.00;;;;;17.56;60.45;100913.31;5073119;28;45879;-78
2023/06/07 05:42:21;;;;;;;;;29.75;26.50;;;;;17.56;60.42;100918.63;5073235;28;46771;-77
2023/06/07 05:44:48;;;;;;;;;31.50;27.00;;;;;17.55;60.96;100911.66;5073405;28;45578;-79
2023/06/07 05:47:16;;;;;;;;;29.25;27.25;;;;;17.55;60.79;100908.16;5073272;28;45678;-79
2023/06/07 05:49:45;;;;;;;;;34.75;27.25;;;;;17.55;60.40;100916.94;5073168;28;45593;-78
2023/06/07 05:52:10;;;;;;;;;33.00;25.50;;;;;17.54;60.50;100915.28;5073073;28;45781;-78
2023/06/07 18:42:44;;;;;;;;;14.00;13.00;;;;;30.58;25.40;100699.56;5094809;22;47409;-79
2023/06/07 18:45:10;;;;;;;;;12.50;12.00;;;;;30.65;25.02;100705.69;4946709;28;48257;-78
2023/06/07 18:47:35;;;;;;;;;12.75;12.25;;;;;30.65;25.34;100694.84;4971203;28;45844;-79
2023/06/07 18:50:03;;;;;;;;;13.25;12.25;;;;;30.68;24.96;100707.91;4971256;28;45902;-79
2023/06/07 18:52:28;;;;;;;;;11.75;11.50;;;;;30.67;25.41;100703.53;4969774;28;45807;-79
2023/06/07 18:54:53;;;;;;;;;15.75;13.75;;;;;30.67;25.07;100705.41;4971263;28;45954;-77
2023/06/07 18:57:19;;;;;;;;;13.00;13.00;;;;;30.58;25.59;100702.28;4971261;28;47771;-77
2023/06/07 18:59:45;;;;;;;;;15.25;14.75;;;;;30.59;25.31;100712.03;4970473;28;47396;-76
2023/06/07 19:02:10;;;;;;;;;10.75;10.75;;;;;30.54;25.62;100706.53;4969978;28;47050;-78
2023/06/07 19:04:38;;;;;;;;;16.25;16.00;;;;;30.55;25.73;100710.88;4982383;28;46018;-77
2023/06/07 19:07:04;;;;;;;;;14.00;13.75;;;;;30.50;25.94;100712.66;4972991;28;45583;-77
2023/06/07 19:09:30;;;;;;;;;15.50;15.50;;;;;30.43;25.63;100716.25;4955316;28;47506;-77
2023/06/07 19:11:55;;;;;;;;;15.75;15.00;;;;;30.39;26.27;100717.78;4969612;28;46704;-77
2023/06/07 19:14:21;;;;;;;;;14.00;13.75;;;;;30.35;26.05;100719.31;4969373;28;45789;-77
2023/06/07 19:16:46;;;;;;;;;15.00;13.25;;;;;30.31;25.61;100720.03;4971912;28;45817;-78
2023/06/07 19:19:12;;;;;;;;;16.25;15.75;;;;;30.23;25.67;100721.19;4966888;28;47291;-77
2023/06/07 19:21:38;;;;;;;;;14.25;14.25;;;;;30.14;25.95;100719.06;4968413;28;46569;-77
2023/06/07 19:24:03;;;;;;;;;14.75;14.50;;;;;30.08;26.21;100715.44;4972899;28;45696;-78
2023/06/07 19:26:29;;;;;;;;;14.25;14.00;;;;;29.99;26.42;100716.84;4971873;28;45918;-76
2023/06/07 19:28:57;;;;;;;;;14.00;13.75;;;;;29.98;26.44;100731.41;4968663;28;48124;-77
2023/06/07 19:31:23;;;;;;;;;15.50;15.25;;;;;29.89;26.38;100732.78;4970597;28;46447;-77
2023/06/07 19:33:48;;;;;;;;;14.25;14.00;;;;;29.82;26.87;100730.19;4971956;28;45638;-77
2023/06/07 19:36:13;;;;;;;;;16.00;14.25;;;;;29.77;26.86;100734.63;4968672;28;46176;-77
2023/06/07 19:38:39;;;;;;;;;15.00;14.25;;;;;29.70;26.91;100739.31;4970742;28;46435;-75
2023/06/07 19:41:04;;;;;;;;;16.25;15.50;;;;;29.62;26.85;100735.06;4970035;28;46950;-77
2023/06/07 19:43:30;;;;;;;;;17.00;17.00;;;;;29.57;27.25;100748.44;4967766;28;45869;-78
2023/06/07 19:45:55;;;;;;;;;15.00;14.25;;;;;29.46;27.16;100741.94;4969659;28;45883;-76
2023/06/07 19:48:20;;;;;;;;;15.00;14.25;;;;;29.36;27.20;100747.09;4969450;28;46778;-78
2023/06/07 19:50:46;;;;;;;;;14.00;13.75;;;;;29.28;27.39;100746.53;4971950;28;46488;-77
2023/06/07 19:53:11;;;;;;;;;16.75;14.25;;;;;29.17;27.68;100754.34;4972257;28;45809;-77
2023/06/07 19:55:37;;;;;;;;;17.00;14.75;;;;;29.06;27.67;100755.09;4969524;28;46220;-76
2023/06/07 19:58:02;;;;;;;;;16.00;15.00;;;;;28.97;27.90;100763.75;4976338;28;47320;-76
2023/06/07 20:00:29;;;;;;;;;15.25;14.00;;;;;28.85;28.07;100765.53;4972012;28;46011;-77
2023/06/07 20:02:54;;;;;;;;;14.50;12.75;;;;;28.72;28.16;100769.16;4969478;28;45728;-76
2023/06/07 20:05:20;;;;;;;;;12.25;12.25;;;;;28.61;28.87;100769.94;4971003;28;45630;-76
2023/06/07 20:07:45;;;;;;;;;14.25;14.25;;;;;28.49;28.76;100777.09;4965722;28;46191;-77
2023/06/07 20:10:10;;;;;;;;;13.00;13.00;;;;;28.36;28.47;100772.63;4969679;28;46308;-77
2023/06/07 20:12:36;;;;;;;;;14.75;14.50;;;;;28.27;28.92;100782.06;4969774;28;45774;-77
2023/06/07 20:15:01;;;;;;;;;13.50;13.00;;;;;28.21;29.24;100793.72;4968505;28;46122;-77
2023/06/07 20:17:27;;;;;;;;;14.00;13.50;;;;;28.10;28.93;100789.84;4953621;28;48364;-76
2023/06/07 20:19:56;;;;;;;;;15.25;13.50;;;;;28.01;29.81;100795.72;4971023;28;47199;-76
2023/06/07 20:22:23;;;;;;;;;14.00;13.25;;;;;27.84;29.69;100790.84;4950003;28;45739;-77
2023/06/07 20:24:49;;;;;;;;;15.25;14.25;;;;;27.77;29.52;100792.75;4952847;28;45654;-76
2023/06/07 20:27:14;;;;;;;;;14.50;14.50;;;;;27.66;30.32;100788.06;4950060;28;47080;-77
2023/06/07 20:29:41;;;;;;;;;15.25;14.50;;;;;27.65;30.23;100801.72;4964089;28;45806;-76
2023/06/07 20:32:07;;;;;;;;;15.00;13.50;;;;;27.56;30.59;100801.16;4968294;28;45855;-77
2023/06/07 20:34:32;;;;;;;;;15.25;14.50;;;;;27.48;30.66;100806.75;4972193;28;45648;-75
2023/06/07 20:36:58;;;;;;;;;15.50;13.25;;;;;27.42;30.70;100808.44;4970959;28;47441;-77
2023/06/07 20:39:23;;;;;;;;;15.25;13.00;;;;;27.22;30.89;100785.34;4953682;28;48114;-77
2023/06/07 20:41:48;;;;;;;;;14.00;13.75;;;;;27.29;30.29;100818.44;4969575;28;46069;-75
2023/06/07 20:44:14;;;;;;;;;12.25;12.25;;;;;27.08;29.72;100793.47;4971064;28;45698;-76
2023/06/07 20:46:39;;;;;;;;;13.00;13.00;;;;;27.11;29.84;100816.44;4968383;28;47483;-77
2023/06/07 20:49:06;;;;;;;;;11.50;10.75;;;;;26.97;29.84;100806.75;4967972;28;45853;-76
2023/06/07 20:51:32;;;;;;;;;9.00;7.25;;;;;26.95;29.96;100815.03;4953151;28;45721;-77
2023/06/07 20:53:57;;;;;;;;;13.25;12.25;;;;;26.92;30.38;100818.16;4953640;28;45978;-77
2023/06/07 20:56:23;;;;;;;;;10.50;10.00;;;;;26.86;29.69;100829.72;4971196;28;45580;-80
2023/06/07 20:58:48;;;;;;;;;12.75;12.25;;;;;26.80;29.39;100832.41;4953770;28;47004;-75
2023/06/07 21:01:15;;;;;;;;;13.50;13.50;;;;;26.73;30.08;100835.09;4970149;28;45786;-75
2023/06/07 21:03:40;;;;;;;;;12.00;11.75;;;;;26.65;29.72;100829.97;4970937;28;45808;-76
2023/06/07 21:06:06;;;;;;;;;12.00;12.00;;;;;26.58;30.19;100832.66;4969399;28;47436;-75
2023/06/07 21:08:31;;;;;;;;;13.00;12.75;;;;;26.53;30.14;100831.63;4970840;28;46145;-75
2023/06/07 21:10:56;;;;;;;;;14.00;13.25;;;;;26.47;30.51;100825.19;4969915;28;46063;-75
2023/06/07 21:13:22;;;;;;;;;14.25;14.00;;;;;26.42;30.77;100833.06;4970849;28;45783;-77
2023/06/07 21:15:47;;;;;;;;;13.00;12.25;;;;;26.35;30.83;100832.22;4970578;28;46354;-77
2023/06/07 21:18:13;;;;;;;;;13.00;12.50;;;;;26.24;30.92;100819.41;4970807;28;46363;-76
2023/06/07 21:20:38;;;;;;;;;11.75;11.75;;;;;26.26;31.26;100837.00;4967373;28;46131;-77
2023/06/07 21:23:05;;;;;;;;;14.50;14.25;;;;;26.19;31.53;100830.75;4950457;28;45826;-75
2023/06/07 21:25:31;;;;;;;;;14.50;14.00;;;;;26.14;31.71;100835.06;4970286;28;47359;-75
2023/06/07 21:27:57;;;;;;;;;14.00;14.00;;;;;26.05;31.38;100829.09;4969395;28;46161;-74
2023/06/07 21:30:22;;;;;;;;;15.75;14.00;;;;;26.06;31.88;100830.75;4969661;28;45648;-76
2023/06/07 21:32:47;;;;;;;;;14.25;14.00;;;;;26.03;31.99;100835.69;4969750;28;45613;-76
2023/06/07 21:35:13;;;;;;;;;14.25;13.50;;;;;25.86;32.16;100816.44;4953232;28;46996;-75
2023/06/07 21:37:38;;;;;;;;;13.00;12.75;;;;;25.96;31.98;100830.31;4970482;28;45785;-76
2023/06/07 21:40:04;;;;;;;;;14.25;13.75;;;;;25.93;32.26;100838.75;4972718;28;45809;-77
2023/06/07 21:42:30;;;;;;;;;16.25;14.50;;;;;25.87;32.35;100837.72;4973272;28;45776;-76
2023/06/07 21:44:57;;;;;;;;;13.75;12.50;;;;;25.80;32.51;100841.44;4973540;28;46590;-75
2023/06/07 21:47:24;;;;;;;;;15.25;14.50;;;;;25.77;32.72;100842.66;4973890;28;46020;-76
2023/06/07 21:49:56;;;;;;;;;15.25;13.25;;;;;25.71;32.75;100831.88;4973766;28;45693;-74
2023/06/07 21:52:23;;;;;;;;;10.75;10.25;;;;;25.65;32.54;100840.75;4958922;28;45793;-76
2023/06/07 21:54:48;;;;;;;;;13.50;13.50;;;;;25.58;32.94;100832.69;4974507;28;45721;-76
2023/06/07 21:57:13;;;;;;;;;13.50;13.00;;;;;25.58;32.86;100843.44;4973744;28;46193;-77
2023/06/07 21:59:39;;;;;;;;;15.00;15.00;;;;;25.45;33.38;100829.91;4972940;28;46060;-76
2023/06/07 22:02:07;;;;;;;;;15.00;13.25;;;;;25.41;33.23;100831.34;4972888;28;45585;-77
2023/06/07 22:04:32;;;;;;;;;15.75;12.00;;;;;25.38;33.06;100834.41;4957216;28;45891;-78
2023/06/07 22:06:58;;;;;;;;;11.50;11.00;;;;;25.35;33.29;100838.34;4956743;28;46018;-77
2023/06/07 22:09:23;;;;;;;;;13.75;13.00;;;;;25.26;33.53;100833.34;4973581;28;45635;-77
2023/06/07 22:11:49;;;;;;;;;10.50;10.50;;;;;25.26;33.42;100852.97;4973354;28;45890;-75
2023/06/07 22:14:14;;;;;;;;;14.00;13.00;;;;;25.20;33.42;100837.66;4973436;28;45563;-76
2023/06/07 22:16:44;;;;;;;;;12.50;11.75;;;;;25.08;33.68;100840.06;4975636;28;46314;-77
2023/06/07 22:19:12;;;;;;;;;11.25;11.00;;;;;25.03;33.76;100829.09;4975391;28;45844;-77
2023/06/07 22:21:38;;;;;;;;;11.75;11.75;;;;;25.00;33.93;100840.22;4976769;28;45747;-75
2023/06/07 22:24:03;;;;;;;;;12.75;12.00;;;;;24.98;34.19;100847.66;4976538;28;46376;-75
2023/06/07 22:26:29;;;;;;;;;13.25;12.50;;;;;24.93;34.29;100847.41;4976550;28;46356;-76
2023/06/07 22:32:17;;;;;;;;;14.00;12.75;;;;;24.69;34.73;100842.44;4976466;28;45562;-77
2023/06/07 22:34:44;;;;;;;;;13.25;13.00;;;;;24.66;34.63;100843.69;4976176;28;46367;-75
2023/06/07 22:37:11;;;;;;;;;14.00;13.00;;;;;24.58;35.01;100849.16;4976640;28;46206;-77
2023/06/07 22:39:37;;;;;;;;;12.25;12.25;;;;;24.53;35.16;100845.41;4976544;28;45769;-76
2023/06/07 22:42:03;;;;;;;;;12.00;12.00;;;;;24.45;35.17;100849.09;4976216;28;45584;-76
2023/06/07 22:48:20;;;;;;;;;13.25;12.75;;;;;24.31;36.32;100851.81;4976033;28;45957;-76
2023/06/07 22:50:47;;;;;;;;;12.75;12.75;;;;;24.19;36.19;100838.09;4958136;28;45798;-76
2023/06/07 22:53:16;;;;;;;;;11.75;11.00;;;;;24.17;36.15;100848.16;4976281;28;46013;-77
2023/06/07 22:55:41;;;;;;;;;15.00;13.50;;;;;24.02;36.49;100829.47;4976377;28;46413;-77
2023/06/07 22:58:07;;;;;;;;;11.50;11.50;;;;;24.05;36.38;100842.50;4958372;28;46497;-76
2023/06/07 23:00:34;;;;;;;;;13.50;13.00;;;;;24.04;36.52;100843.50;4975588;28;45581;-76
2023/06/07 23:03:00;;;;;;;;;11.25;11.25;;;;;23.80;36.91;100811.75;4976363;28;45663;-76
2023/06/07 23:05:29;;;;;;;;;16.00;15.25;;;;;23.95;37.18;100844.66;4976202;28;46129;-75
2023/06/07 23:07:55;;;;;;;;;14.00;14.00;;;;;23.91;37.07;100837.19;4976099;28;46037;-75
2023/06/07 23:10:27;;;;;;;;;12.75;12.50;;;;;23.86;37.46;100828.91;4975770;28;45627;-76
2023/06/07 23:12:54;;;;;;;;;15.00;14.50;;;;;23.78;37.17;100833.34;4975741;28;45781;-77
2023/06/07 23:15:19;;;;;;;;;16.75;16.25;;;;;23.80;37.41;100844.72;4975954;28;45658;-76
2023/06/07 23:17:44;;;;;;;;;12.75;12.75;;;;;23.78;37.56;100843.22;4975809;28;45585;-76
2023/06/07 23:20:12;;;;;;;;;13.00;12.25;;;;;23.74;37.79;100834.75;4976159;28;45592;-77
2023/06/07 23:22:42;;;;;;;;;16.25;14.25;;;;;23.68;37.72;100838.19;4975664;28;45563;-77
2023/06/07 23:25:10;;;;;;;;;11.25;11.25;;;;;23.65;37.90;100837.72;4975928;28;46634;-76
2023/06/07 23:27:37;;;;;;;;;12.25;12.25;;;;;23.51;37.75;100823.38;4975604;28;46958;-77
2023/06/07 23:33:24;;;;;;;;;14.75;14.75;;;;;23.49;38.05;100836.09;4975719;28;45694;-76
2023/06/07 23:35:50;;;;;;;;;14.25;14.25;;;;;23.36;38.52;100818.03;4975506;28;46431;-76
2023/06/07 23:38:15;;;;;;;;;13.50;12.75;;;;;23.42;38.49;100830.66;4975456;28;46395;-75
2023/06/07 23:40:41;;;;;;;;;16.25;14.50;;;;;23.37;38.31;100822.31;4975081;28;45679;-76
2023/06/07 23:43:06;;;;;;;;;13.25;13.00;;;;;23.31;38.65;100817.75;4975372;28;45762;-76
2023/06/07 23:45:31;;;;;;;;;14.00;14.00;;;;;23.29;38.78;100824.28;4975237;28;47258;-76
2023/06/07 23:47:59;;;;;;;;;15.00;14.25;;;;;23.23;39.46;100825.03;4976031;28;47107;-76
2023/06/07 23:50:25;;;;;;;;;14.00;13.50;;;;;23.16;39.45;100816.91;4975952;28;45756;-76
2023/06/07 23:52:51;;;;;;;;;13.25;12.00;;;;;23.11;39.30;100821.16;4958102;28;45521;-76
2023/06/07 23:55:16;;;;;;;;;14.75;13.00;;;;;23.08;39.71;100817.03;4975864;28;46524;-76
2023/06/07 23:57:42;;;;;;;;;14.50;12.25;;;;;23.05;39.76;100814.72;4975467;28;45638;-76
